Time;durP1;ratioP1;P1;durP2;ratioP2;P2;SDS_P1;SDS_P2;PMS_P1;PMS_P2;Temp;Humidity;BMP_temperature;BMP_pressure;BME280_temperature;BME280_humidity;BME280_pressure;Samples;Min_cycle;Max_cycle;Signal;HPM_P1;HPM_P2
2023/04/26 00:01:22;;;;;;;;;;;;;;;7.45;69.98;92542.84;2041822;70;20083;-76
2023/04/26 00:03:49;;;;;;;;;;;;;;;7.44;68.38;92536.50;2041592;70;20397;-76
2023/04/26 00:06:15;;;;;;;;;;;;;;;7.54;67.81;92544.88;2038989;70;20051;-76
2023/04/26 00:08:41;;;;;;;;;;;;;;;7.26;69.74;92552.03;2042262;70;20095;-76
2023/04/26 00:11:06;;;;;;;;;;;;;;;7.07;70.72;92550.75;2042100;70;20153;-77
2023/04/26 00:13:33;;;;;;;;;;;;;;;7.31;69.66;92545.38;2040127;70;20048;-76
2023/04/26 00:15:58;;;;;;;;;;;;;;;7.05;69.47;92541.44;2041744;70;20079;-78
2023/04/26 00:18:25;;;;;;;;;;;;;;;6.61;72.86;92543.28;2041272;70;20048;-76
2023/04/26 00:20:51;;;;;;;;;;;;;;;6.63;72.70;92539.88;2038751;70;20052;-76
2023/04/26 00:23:17;;;;;;;;;;;;;;;6.82;71.96;92530.75;2038513;70;20138;-76
2023/04/26 00:25:45;;;;;;;;;;;;;;;7.00;70.89;92531.31;2041610;70;20503;-77
2023/04/26 00:28:10;;;;;;;;;;;;;;;7.07;70.78;92525.56;2042061;70;20477;-76
2023/04/26 00:30:40;;;;;;;;;;;;;;;7.19;69.48;92531.25;2041268;70;20032;-76
2023/04/26 00:33:06;;;;;;;;;;;;;;;7.21;69.84;92527.88;2041238;70;20059;-75
2023/04/26 00:35:34;;;;;;;;;;;;;;;7.26;68.83;92529.63;2038600;70;20055;-75
2023/04/26 00:38:00;;;;;;;;;;;;;;;7.21;70.16;92525.81;2041661;70;20150;-75
2023/04/26 00:40:27;;;;;;;;;;;;;;;6.79;71.08;92527.06;2042133;70;20134;-76
2023/04/26 00:42:56;;;;;;;;;;;;;;;6.45;73.17;92528.09;2041746;70;20075;-75
2023/04/26 00:45:23;;;;;;;;;;;;;;;6.51;74.49;92536.97;2042076;70;20062;-76
2023/04/26 00:47:49;;;;;;;;;;;;;;;6.77;72.75;92528.97;2041835;70;20095;-75
2023/04/26 00:50:15;;;;;;;;;;;;;;;7.10;70.99;92529.22;2035251;70;20138;-76
2023/04/26 00:52:42;;;;;;;;;;;;;;;7.15;70.59;92528.19;2040740;70;20066;-76
2023/04/26 00:55:07;;;;;;;;;;;;;;;6.58;73.38;92530.47;2041372;70;20112;-76
2023/04/26 00:57:33;;;;;;;;;;;;;;;6.27;75.27;92533.09;2042066;70;20238;-76
2023/04/26 00:59:58;;;;;;;;;;;;;;;6.87;72.44;92530.47;2038812;70;20655;-76
2023/04/26 01:02:28;;;;;;;;;;;;;;;6.97;71.91;92530.44;2041588;70;20059;-77
2023/04/26 01:04:53;;;;;;;;;;;;;;;6.98;72.51;92529.09;2039010;70;20056;-75
2023/04/26 01:07:19;;;;;;;;;;;;;;;7.13;70.98;92537.16;2042122;70;20056;-75
2023/04/26 01:09:46;;;;;;;;;;;;;;;7.22;69.71;92523.75;2042061;70;20456;-75
2023/04/26 01:12:12;;;;;;;;;;;;;;;7.18;70.32;92524.19;2041764;70;20146;-75
2023/04/26 01:14:38;;;;;;;;;;;;;;;7.22;70.59;92521.69;2038784;70;20058;-76
2023/04/26 01:17:07;;;;;;;;;;;;;;;7.20;70.52;92520.81;2038793;70;20052;-75
2023/04/26 01:19:36;;;;;;;;;;;;;;;7.14;70.92;92523.91;2041984;70;20052;-75
2023/04/26 01:22:01;;;;;;;;;;;;;;;7.27;70.81;92519.91;2041660;70;20480;-76
2023/04/26 01:24:27;;;;;;;;;;;;;;;7.26;69.68;92524.75;2041592;70;20153;-76
2023/04/26 01:26:52;;;;;;;;;;;;;;;7.28;69.85;92530.50;2041907;70;20066;-75
2023/04/26 01:29:20;;;;;;;;;;;;;;;7.23;70.58;92534.34;2041583;70;20075;-75
2023/04/26 01:31:46;;;;;;;;;;;;;;;7.20;69.91;92535.53;2038870;70;20492;-75
2023/04/26 01:34:12;;;;;;;;;;;;;;;7.19;70.60;92538.91;2041961;70;20043;-75
2023/04/26 01:36:38;;;;;;;;;;;;;;;7.25;71.03;92548.50;2042088;70;20138;-75
2023/04/26 01:39:09;;;;;;;;;;;;;;;7.26;69.84;92547.16;2038918;70;20052;-76
2023/04/26 01:41:36;;;;;;;;;;;;;;;7.25;70.84;92542.91;2038679;70;20081;-75
2023/04/26 01:44:01;;;;;;;;;;;;;;;7.03;71.02;92541.31;2038770;70;20054;-75
2023/04/26 01:46:26;;;;;;;;;;;;;;;6.76;72.91;92545.03;2041605;70;20518;-74
2023/04/26 01:48:53;;;;;;;;;;;;;;;7.03;71.34;92538.53;2041554;70;20052;-75
2023/04/26 01:51:21;;;;;;;;;;;;;;;7.17;70.91;92541.59;2041283;70;20123;-74
2023/04/26 01:53:46;;;;;;;;;;;;;;;7.21;70.91;92542.59;2041808;70;20159;-75
2023/04/26 01:56:12;;;;;;;;;;;;;;;7.31;69.64;92540.50;2041570;70;20062;-75
2023/04/26 01:58:39;;;;;;;;;;;;;;;7.27;69.94;92537.44;2037986;70;20082;-74
2023/04/26 02:01:08;;;;;;;;;;;;;;;7.09;72.74;92541.75;2040846;70;20469;-74
2023/04/26 02:03:34;;;;;;;;;;;;;;;7.18;72.12;92543.06;2041489;70;20051;-75
2023/04/26 02:05:59;;;;;;;;;;;;;;;7.29;70.59;92531.97;2040834;70;20062;-76
2023/04/26 02:08:25;;;;;;;;;;;;;;;7.25;71.33;92539.38;2038279;70;20064;-75
2023/04/26 02:10:50;;;;;;;;;;;;;;;7.28;69.93;92538.91;2042023;70;20047;-75
2023/04/26 02:13:18;;;;;;;;;;;;;;;7.16;71.09;92543.66;2038461;70;20073;-76
2023/04/26 02:15:47;;;;;;;;;;;;;;;6.40;74.38;92536.78;2041115;70;20052;-75
2023/04/26 02:18:12;;;;;;;;;;;;;;;6.90;72.23;92536.19;2038592;70;20059;-75
2023/04/26 02:20:44;;;;;;;;;;;;;;;6.98;71.19;92533.97;2040704;70;20064;-75
2023/04/26 02:23:11;;;;;;;;;;;;;;;7.04;71.45;92535.13;2041197;70;20151;-74
2023/04/26 02:25:37;;;;;;;;;;;;;;;6.99;71.32;92529.84;2041404;70;20098;-75
2023/04/26 02:28:03;;;;;;;;;;;;;;;7.04;71.46;92540.72;2041527;70;20120;-74
2023/04/26 02:30:29;;;;;;;;;;;;;;;7.13;71.48;92531.56;2038298;70;20484;-74
2023/04/26 02:32:57;;;;;;;;;;;;;;;7.12;72.44;92543.38;2041375;70;20150;-74
2023/04/26 02:35:23;;;;;;;;;;;;;;;7.09;72.02;92530.53;2041802;70;20047;-74
2023/04/26 02:37:51;;;;;;;;;;;;;;;7.18;70.38;92537.44;2038425;70;20075;-74
2023/04/26 02:40:17;;;;;;;;;;;;;;;7.11;71.06;92533.50;2041577;70;20055;-75
2023/04/26 02:42:43;;;;;;;;;;;;;;;7.12;71.57;92540.56;2038627;70;20051;-75
2023/04/26 02:45:09;;;;;;;;;;;;;;;7.10;70.82;92537.59;2038302;70;20102;-74
2023/04/26 02:47:38;;;;;;;;;;;;;;;7.21;70.58;92537.00;2038851;70;20059;-76
2023/04/26 02:50:07;;;;;;;;;;;;;;;7.13;71.41;92539.97;2038460;70;20457;-76
2023/04/26 02:52:33;;;;;;;;;;;;;;;7.07;71.60;92528.34;2038575;70;20159;-74
2023/04/26 02:54:59;;;;;;;;;;;;;;;7.18;70.23;92535.38;2038590;70;20075;-74
2023/04/26 02:57:25;;;;;;;;;;;;;;;7.11;70.24;92536.31;2038253;70;20059;-75
2023/04/26 02:59:51;;;;;;;;;;;;;;;7.21;70.64;92525.09;2041689;70;20423;-75
2023/04/26 03:02:16;;;;;;;;;;;;;;;7.29;69.50;92528.44;2038440;70;20060;-74
2023/04/26 03:04:42;;;;;;;;;;;;;;;7.18;71.00;92527.00;2041868;70;20092;-74
2023/04/26 03:07:09;;;;;;;;;;;;;;;7.17;70.63;92522.00;2041591;70;20063;-75
2023/04/26 03:09:37;;;;;;;;;;;;;;;7.13;70.63;92520.38;2038232;70;20504;-75
2023/04/26 03:12:09;;;;;;;;;;;;;;;7.08;70.09;92523.47;2041199;70;20475;-75
2023/04/26 03:14:35;;;;;;;;;;;;;;;7.04;71.04;92509.19;2038487;70;20048;-75
2023/04/26 03:17:01;;;;;;;;;;;;;;;6.97;71.00;92524.09;2038809;70;20062;-75
2023/04/26 03:19:28;;;;;;;;;;;;;;;6.98;70.21;92528.38;2038946;70;20206;-73
2023/04/26 03:21:55;;;;;;;;;;;;;;;6.86;71.59;92522.63;2041934;70;20500;-74
2023/04/26 03:24:21;;;;;;;;;;;;;;;6.85;70.95;92521.16;2038968;70;20472;-74
2023/04/26 03:26:51;;;;;;;;;;;;;;;6.82;70.58;92528.66;2038953;70;20056;-75
2023/04/26 03:29:19;;;;;;;;;;;;;;;6.76;70.68;92527.50;2039069;70;20055;-75
2023/04/26 03:31:46;;;;;;;;;;;;;;;6.88;70.10;92529.13;2042459;70;20222;-74
2023/04/26 03:34:11;;;;;;;;;;;;;;;6.76;69.97;92525.44;2041649;70;20048;-76
2023/04/26 03:36:37;;;;;;;;;;;;;;;6.69;71.40;92528.38;2039001;70;20047;-76
2023/04/26 03:39:07;;;;;;;;;;;;;;;6.72;70.69;92533.53;2038985;70;20075;-75
2023/04/26 03:41:35;;;;;;;;;;;;;;;6.70;70.80;92532.69;2041831;70;20056;-76
2023/04/26 03:44:03;;;;;;;;;;;;;;;6.54;71.03;92532.22;2038969;70;20504;-76
2023/04/26 03:46:28;;;;;;;;;;;;;;;6.48;71.55;92529.00;2039023;70;20040;-76
2023/04/26 03:48:54;;;;;;;;;;;;;;;6.54;70.70;92532.97;2038989;70;20068;-76
2023/04/26 03:51:19;;;;;;;;;;;;;;;6.48;71.11;92534.59;2041907;70;20079;-75
2023/04/26 03:53:47;;;;;;;;;;;;;;;6.45;70.49;92538.56;2038809;70;20055;-76
2023/04/26 03:56:13;;;;;;;;;;;;;;;6.45;70.75;92530.91;2038897;70;20067;-76
2023/04/26 03:58:40;;;;;;;;;;;;;;;6.39;70.46;92538.13;2038632;70;20067;-76
2023/04/26 04:01:06;;;;;;;;;;;;;;;6.35;70.93;92535.75;2038792;70;20496;-76
2023/04/26 04:03:33;;;;;;;;;;;;;;;6.33;70.65;92541.22;2041878;70;20614;-76
2023/04/26 04:06:00;;;;;;;;;;;;;;;6.32;69.80;92529.31;2041806;70;20317;-76
2023/04/26 04:08:26;;;;;;;;;;;;;;;6.24;70.69;92542.69;2041986;70;20062;-76
2023/04/26 04:10:51;;;;;;;;;;;;;;;6.20;70.26;92539.56;2038866;70;20074;-77
2023/04/26 04:13:16;;;;;;;;;;;;;;;6.20;70.72;92542.38;2042001;70;20457;-77
2023/04/26 04:15:44;;;;;;;;;;;;;;;6.13;70.56;92539.72;2042189;70;20047;-76
2023/04/26 04:18:10;;;;;;;;;;;;;;;6.03;71.02;92542.50;2042016;70;20051;-75
2023/04/26 04:20:35;;;;;;;;;;;;;;;6.09;71.33;92540.13;2038877;70;20048;-75
2023/04/26 04:23:05;;;;;;;;;;;;;;;6.10;70.74;92542.38;2038930;70;20493;-75
2023/04/26 04:25:31;;;;;;;;;;;;;;;6.13;70.05;92540.44;2041892;70;20050;-75
2023/04/26 04:28:01;;;;;;;;;;;;;;;6.14;70.45;92547.53;2042368;70;20083;-76
2023/04/26 04:30:28;;;;;;;;;;;;;;;6.09;70.25;92552.06;2039112;70;20056;-76
2023/04/26 04:32:57;;;;;;;;;;;;;;;6.03;70.36;92550.88;2042339;70;20122;-75
2023/04/26 04:35:27;;;;;;;;;;;;;;;6.02;70.31;92543.81;2039220;70;20496;-75
2023/04/26 04:37:55;;;;;;;;;;;;;;;6.11;70.33;92554.28;2041868;70;20064;-75
2023/04/26 04:40:21;;;;;;;;;;;;;;;6.05;69.51;92551.03;2039252;70;20163;-76
2023/04/26 04:42:48;;;;;;;;;;;;;;;5.95;71.43;92559.38;2039137;70;20052;-76
2023/04/26 04:45:16;;;;;;;;;;;;;;;5.92;71.24;92560.56;2038995;70;20079;-75
2023/04/26 04:47:44;;;;;;;;;;;;;;;6.07;70.79;92565.16;2041565;70;20057;-76
2023/04/26 04:50:09;;;;;;;;;;;;;;;6.06;70.41;92561.63;2042385;70;20162;-76
2023/04/26 04:52:35;;;;;;;;;;;;;;;5.99;70.10;92568.06;2039499;70;20366;-75
2023/04/26 04:55:02;;;;;;;;;;;;;;;5.95;72.01;92570.56;2042305;70;20119;-76
2023/04/26 04:57:31;;;;;;;;;;;;;;;6.04;71.29;92563.50;2039169;70;20020;-76
2023/04/26 04:59:58;;;;;;;;;;;;;;;6.11;71.03;92562.66;2038969;70;20055;-77
2023/04/26 05:02:25;;;;;;;;;;;;;;;6.18;70.48;92556.19;2039463;70;20147;-77
2023/04/26 05:04:57;;;;;;;;;;;;;;;6.08;71.23;92566.63;2039006;70;20058;-75
2023/04/26 05:07:23;;;;;;;;;;;;;;;6.07;72.07;92563.09;2042647;70;20147;-76
2023/04/26 05:09:51;;;;;;;;;;;;;;;6.08;71.66;92561.03;2041757;70;20056;-76
2023/04/26 05:12:17;;;;;;;;;;;;;;;6.28;70.73;92564.63;2039199;70;20044;-75
2023/04/26 05:14:42;;;;;;;;;;;;;;;6.22;71.94;92564.88;2041764;70;20374;-76
2023/04/26 05:17:08;;;;;;;;;;;;;;;6.41;70.75;92564.16;2039210;70;20164;-76
2023/04/26 05:19:35;;;;;;;;;;;;;;;6.50;70.64;92571.09;2042344;70;20047;-76
2023/04/26 05:22:01;;;;;;;;;;;;;;;6.55;70.79;92575.66;2032577;70;20119;-75
2023/04/26 05:24:29;;;;;;;;;;;;;;;6.16;72.35;92578.41;2035725;70;20083;-76
2023/04/26 05:26:57;;;;;;;;;;;;;;;6.03;73.13;92573.97;2035831;70;20063;-75
2023/04/26 05:29:32;;;;;;;;;;;;;;;6.38;71.84;92573.00;2035697;70;20072;-75
2023/04/26 05:32:00;;;;;;;;;;;;;;;6.42;72.14;92574.03;2039253;70;20087;-74
2023/04/26 05:34:37;;;;;;;;;;;;;;;6.48;71.41;92570.94;2039106;70;20120;-75
2023/04/26 05:37:03;;;;;;;;;;;;;;;6.54;71.38;92580.50;2035639;70;20397;-76
2023/04/26 05:39:28;;;;;;;;;;;;;;;6.50;71.16;92569.03;2035519;70;20164;-75
2023/04/26 05:41:54;;;;;;;;;;;;;;;6.51;70.36;92572.56;2035885;70;20139;-75
2023/04/26 05:44:22;;;;;;;;;;;;;;;6.47;70.66;92573.00;2035197;70;20056;-76
2023/04/26 05:46:47;;;;;;;;;;;;;;;6.35;71.86;92572.84;2035670;70;20052;-75
2023/04/26 05:49:13;;;;;;;;;;;;;;;6.42;71.24;92570.50;2038270;70;20143;-76
2023/04/26 05:51:40;;;;;;;;;;;;;;;6.51;71.28;92580.97;2035919;70;20059;-74
2023/04/26 05:54:05;;;;;;;;;;;;;;;6.56;71.56;92583.47;2035839;70;20052;-75
2023/04/26 05:56:31;;;;;;;;;;;;;;;6.51;70.89;92580.97;2035399;70;20048;-75
2023/04/26 05:58:58;;;;;;;;;;;;;;;6.18;72.64;92581.34;2035083;70;20060;-76
2023/04/26 06:01:24;;;;;;;;;;;;;;;6.53;71.33;92595.09;2035261;70;20151;-76
2023/04/26 06:03:50;;;;;;;;;;;;;;;6.62;71.12;92591.56;2038880;70;20495;-76
2023/04/26 06:06:19;;;;;;;;;;;;;;;6.61;71.25;92590.81;2030129;70;20048;-76
2023/04/26 06:08:45;;;;;;;;;;;;;;;6.61;72.13;92593.63;2035871;70;20143;-74
2023/04/26 06:11:10;;;;;;;;;;;;;;;6.67;71.17;92592.59;2035814;70;20152;-74
2023/04/26 06:13:36;;;;;;;;;;;;;;;6.67;71.31;92601.00;2035608;70;20143;-76
2023/04/26 06:16:01;;;;;;;;;;;;;;;6.77;71.34;92598.94;2032834;70;20063;-74
2023/04/26 06:18:27;;;;;;;;;;;;;;;6.66;71.38;92596.72;2035563;70;20055;-75
2023/04/26 06:20:52;;;;;;;;;;;;;;;6.75;70.25;92601.59;2035823;70;20063;-76
2023/04/26 06:23:18;;;;;;;;;;;;;;;6.76;71.99;92603.06;2039129;70;20416;-78
2023/04/26 06:25:43;;;;;;;;;;;;;;;6.81;71.47;92593.63;2039006;70;20060;-75
2023/04/26 06:28:09;;;;;;;;;;;;;;;6.83;71.76;92596.59;2035511;70;20104;-76
2023/04/26 06:30:34;;;;;;;;;;;;;;;7.03;71.21;92592.44;2038789;70;20064;-76
2023/04/26 06:33:01;;;;;;;;;;;;;;;7.14;71.50;92589.03;2035174;70;20417;-77
2023/04/26 06:35:28;;;;;;;;;;;;;;;7.29;71.30;92593.59;2032647;70;20124;-77
2023/04/26 06:37:55;;;;;;;;;;;;;;;7.61;68.63;92594.41;2039098;70;20068;-76
2023/04/26 06:40:22;;;;;;;;;;;;;;;7.74;68.49;92599.50;2035641;70;20147;-76
2023/04/26 06:42:47;;;;;;;;;;;;;;;7.78;69.86;92593.44;2035481;70;20143;-76
2023/04/26 06:45:31;;;;;;;;;;;;;;;7.48;70.01;92590.00;2035600;70;20420;-78
2023/04/26 06:47:59;;;;;;;;;;;;;;;7.49;69.70;92588.66;2035726;70;20168;-76
2023/04/26 06:50:28;;;;;;;;;;;;;;;7.64;68.84;92585.50;2036207;70;20421;-77
2023/04/26 06:52:53;;;;;;;;;;;;;;;7.49;69.66;92593.53;2038875;70;20170;-75
2023/04/26 06:55:19;;;;;;;;;;;;;;;7.60;69.28;92588.03;2039158;70;20489;-76
2023/04/26 06:57:49;;;;;;;;;;;;;;;7.73;67.89;92591.69;2039467;70;20048;-77
2023/04/26 07:00:15;;;;;;;;;;;;;;;8.17;68.56;92594.00;2039519;70;20056;-78
2023/04/26 07:02:40;;;;;;;;;;;;;;;8.63;67.88;92595.69;2039522;70;20068;-79
2023/04/26 07:05:06;;;;;;;;;;;;;;;8.95;68.36;92587.91;2039626;70;20052;-77
2023/04/26 07:07:31;;;;;;;;;;;;;;;9.07;67.65;92583.06;2039537;70;20052;-79
2023/04/26 07:09:57;;;;;;;;;;;;;;;9.07;67.75;92583.81;2039429;70;20048;-75
2023/04/26 07:12:24;;;;;;;;;;;;;;;9.46;67.72;92571.47;2035693;70;20461;-79
2023/04/26 07:14:50;;;;;;;;;;;;;;;9.82;67.43;92573.00;2039366;70;20072;-76
2023/04/26 07:17:16;;;;;;;;;;;;;;;10.00;66.13;92576.19;2039441;70;20084;-79
2023/04/26 07:19:42;;;;;;;;;;;;;;;10.34;63.71;92577.56;2039371;70;20048;-79
2023/04/26 07:22:07;;;;;;;;;;;;;;;10.49;59.95;92577.06;2039470;70;20074;-76
2023/04/26 07:24:32;;;;;;;;;;;;;;;10.93;58.63;92575.38;2039368;70;20124;-75
2023/04/26 07:26:58;;;;;;;;;;;;;;;11.17;58.07;92576.75;2039053;70;20068;-76
2023/04/26 07:29:25;;;;;;;;;;;;;;;11.47;56.58;92568.53;2039109;70;20064;-77
2023/04/26 07:31:50;;;;;;;;;;;;;;;11.38;55.01;92564.53;2039489;70;20445;-76
2023/04/26 07:34:16;;;;;;;;;;;;;;;11.86;55.09;92570.66;2039231;70;20082;-76
2023/04/26 07:36:41;;;;;;;;;;;;;;;12.17;53.24;92570.19;2039669;70;20056;-79
2023/04/26 07:39:08;;;;;;;;;;;;;;;12.01;53.11;92567.25;2033044;70;20036;-78
2023/04/26 07:41:34;;;;;;;;;;;;;;;12.63;51.05;92568.31;2039680;70;20060;-76
2023/04/26 07:43:59;;;;;;;;;;;;;;;13.01;50.86;92572.34;2039268;70;20068;-78
2023/04/26 07:46:26;;;;;;;;;;;;;;;13.27;49.30;92580.69;2036024;70;20428;-81
2023/04/26 07:48:51;;;;;;;;;;;;;;;12.72;49.24;92570.19;2039409;70;20166;-81
2023/04/26 07:51:17;;;;;;;;;;;;;;;13.60;48.11;92577.34;2039288;70;20513;-78
2023/04/26 07:53:43;;;;;;;;;;;;;;;13.51;46.02;92587.53;2039179;70;20143;-76
2023/04/26 07:56:09;;;;;;;;;;;;;;;13.80;48.82;92581.13;2035725;70;20063;-77
2023/04/26 07:58:38;;;;;;;;;;;;;;;14.34;46.27;92573.69;2032338;70;20441;-74
2023/04/26 08:01:04;;;;;;;;;;;;;;;14.73;44.36;92578.97;2039210;70;20079;-77
2023/04/26 08:03:30;;;;;;;;;;;;;;;15.07;42.91;92578.25;2039303;70;20070;-79
2023/04/26 08:05:57;;;;;;;;;;;;;;;15.10;42.45;92568.47;2039312;70;20059;-78
2023/04/26 08:08:24;;;;;;;;;;;;;;;14.79;42.49;92558.66;2039253;70;20056;-77
2023/04/26 08:10:51;;;;;;;;;;;;;;;13.51;43.43;92569.81;2035925;70;20083;-76
2023/04/26 08:13:17;;;;;;;;;;;;;;;14.14;43.76;92564.28;2039093;70;20052;-77
2023/04/26 08:15:42;;;;;;;;;;;;;;;14.21;43.87;92549.75;2039071;70;20075;-77
2023/04/26 08:18:08;;;;;;;;;;;;;;;15.30;41.88;92551.56;2038860;70;20096;-79
2023/04/26 08:20:33;;;;;;;;;;;;;;;16.16;41.56;92556.41;2039146;70;20052;-79
2023/04/26 08:22:59;;;;;;;;;;;;;;;16.15;41.38;92546.44;2038990;70;20076;-78
2023/04/26 08:25:26;;;;;;;;;;;;;;;16.35;40.41;92549.28;2039107;70;20056;-77
2023/04/26 08:27:53;;;;;;;;;;;;;;;15.56;40.53;92552.63;2039083;70;20024;-79
2023/04/26 08:30:18;;;;;;;;;;;;;;;16.53;39.62;92549.97;2039044;70;20056;-79
2023/04/26 08:32:45;;;;;;;;;;;;;;;15.88;38.62;92550.38;2038859;70;20052;-76
2023/04/26 08:35:10;;;;;;;;;;;;;;;16.80;37.91;92553.06;2035391;70;20159;-77
2023/04/26 08:37:36;;;;;;;;;;;;;;;16.81;37.62;92551.66;2039107;70;20139;-79
2023/04/26 08:40:14;;;;;;;;;;;;;;;16.82;36.14;92545.34;2035600;70;20060;-77
2023/04/26 08:42:42;;;;;;;;;;;;;;;17.58;35.68;92542.91;2039171;70;20092;-77
2023/04/26 08:45:10;;;;;;;;;;;;;;;17.08;34.62;92551.19;2038991;70;20056;-76
2023/04/26 08:47:43;;;;;;;;;;;;;;;17.48;35.00;92542.56;2036037;70;20175;-80
2023/04/26 08:50:10;;;;;;;;;;;;;;;18.44;33.94;92543.44;2039239;70;20084;-79
2023/04/26 08:52:37;;;;;;;;;;;;;;;17.18;36.31;92547.97;2039159;70;20092;-80
2023/04/26 08:55:04;;;;;;;;;;;;;;;18.35;34.19;92547.44;2038878;70;20059;-79
2023/04/26 08:57:34;;;;;;;;;;;;;;;18.14;34.53;92551.06;2038985;70;20496;-81
2023/04/26 09:00:00;;;;;;;;;;;;;;;18.41;34.04;92546.88;2039139;70;20164;-81
2023/04/26 09:02:26;;;;;;;;;;;;;;;19.50;34.78;92543.47;2039199;70;20126;-79
2023/04/26 09:04:51;;;;;;;;;;;;;;;18.21;31.23;92541.31;2035692;70;20052;-78
2023/04/26 09:07:21;;;;;;;;;;;;;;;19.85;30.61;92546.47;2039298;70;20044;-79
2023/04/26 09:09:47;;;;;;;;;;;;;;;19.28;30.04;92534.31;2039195;70;20079;-81
2023/04/26 09:12:13;;;;;;;;;;;;;;;19.33;31.79;92538.75;2038845;70;20048;-75
2023/04/26 09:14:39;;;;;;;;;;;;;;;18.14;31.13;92546.09;2037021;70;20040;-79
2023/04/26 09:17:05;;;;;;;;;;;;;;;18.60;29.95;92537.47;2036886;70;20489;-80
2023/04/26 09:19:34;;;;;;;;;;;;;;;17.17;32.05;92523.75;2035922;70;20065;-78
2023/04/26 09:22:00;;;;;;;;;;;;;;;18.37;32.74;92524.72;2039397;70;20078;-80
2023/04/26 09:24:26;;;;;;;;;;;;;;;19.36;29.81;92531.69;2039369;70;20069;-79
2023/04/26 09:27:04;;;;;;;;;;;;;;;21.03;30.67;92532.63;2036071;70;20083;-80
2023/04/26 09:29:31;;;;;;;;;;;;;;;20.00;27.46;92537.56;2039085;70;20178;-81
2023/04/26 09:31:57;;;;;;;;;;;;;;;21.26;26.12;92524.47;2039187;70;20160;-76
2023/04/26 09:34:23;;;;;;;;;;;;;;;20.85;26.94;92526.56;2038708;70;20147;-81
2023/04/26 09:36:55;;;;;;;;;;;;;;;21.51;27.30;92532.09;2035941;70;20060;-78
2023/04/26 09:39:34;;;;;;;;;;;;;;;22.46;26.33;92522.84;2035956;70;20052;-78
2023/04/26 09:42:00;;;;;;;;;;;;;;;22.02;24.70;92523.59;2039065;70;20473;-78
2023/04/26 09:44:28;;;;;;;;;;;;;;;22.71;24.80;92524.59;2035600;70;20059;-79
2023/04/26 09:47:00;;;;;;;;;;;;;;;22.97;24.40;92514.91;2039030;70;20055;-76
2023/04/26 09:49:26;;;;;;;;;;;;;;;22.91;24.82;92506.97;2035539;70;20087;-78
2023/04/26 09:52:01;;;;;;;;;;;;;;;21.84;22.12;92509.72;2039379;70;20075;-77
2023/04/26 09:54:48;;;;;;;;;;;;;;;22.61;21.72;92506.56;2039108;70;20048;-78
2023/04/26 09:57:14;;;;;;;;;;;;;;;22.35;21.46;92507.63;2039241;70;20119;-78
2023/04/26 09:59:40;;;;;;;;;;;;;;;24.06;21.52;92521.03;2039115;70;20105;-76
2023/04/26 10:02:18;;;;;;;;;;;;;;;23.39;23.04;92511.78;2038824;70;20481;-78
2023/04/26 10:04:46;;;;;;;;;;;;;;;22.83;23.72;92509.69;2038770;70;20163;-78
2023/04/26 10:07:12;;;;;;;;;;;;;;;23.31;22.31;92500.91;2038881;70;20489;-77
2023/04/26 10:09:40;;;;;;;;;;;;;;;22.36;22.42;92494.00;2039052;70;20068;-77
2023/04/26 10:12:05;;;;;;;;;;;;;;;23.49;22.98;92500.38;2039254;70;20055;-79
2023/04/26 10:14:33;;;;;;;;;;;;;;;24.17;22.68;92498.81;2038963;70;20048;-78
2023/04/26 10:16:59;;;;;;;;;;;;;;;23.96;22.47;92497.97;2039133;70;20135;-77
2023/04/26 10:19:26;;;;;;;;;;;;;;;21.37;22.78;92485.31;2039044;70;20504;-77
2023/04/26 10:21:53;;;;;;;;;;;;;;;23.99;22.28;92485.03;2038615;70;20169;-75
2023/04/26 10:24:18;;;;;;;;;;;;;;;25.52;22.79;92479.28;2039044;70;20132;-78
2023/04/26 10:26:56;;;;;;;;;;;;;;;23.46;21.35;92478.81;2039114;70;20060;-79
2023/04/26 10:29:22;;;;;;;;;;;;;;;23.07;21.21;92481.28;2039152;70;20481;-76
2023/04/26 10:32:05;;;;;;;;;;;;;;;24.15;20.32;92475.09;2039097;70;20135;-77
2023/04/26 10:34:36;;;;;;;;;;;;;;;25.52;19.96;92465.63;2035672;70;20159;-78
2023/04/26 10:37:09;;;;;;;;;;;;;;;24.49;19.25;92460.91;2038943;70;20063;-80
2023/04/26 10:39:37;;;;;;;;;;;;;;;25.23;19.33;92459.06;2038871;70;20103;-79
2023/04/26 10:42:25;;;;;;;;;;;;;;;29.18;16.82;92469.47;2038892;70;20044;-77
2023/04/26 10:44:58;;;;;;;;;;;;;;;28.71;16.84;92461.31;2038722;70;20155;-80
2023/04/26 10:47:25;;;;;;;;;;;;;;;28.14;15.94;92453.91;2039125;70;20052;-77
2023/04/26 10:50:00;;;;;;;;;;;;;;;33.31;15.23;92463.38;2035821;70;20059;-79
2023/04/26 10:52:25;;;;;;;;;;;;;;;30.85;14.49;92453.13;2039018;70;20596;-81
2023/04/26 10:54:52;;;;;;;;;;;;;;;30.64;14.22;92446.22;2032756;70;20159;-79
2023/04/26 10:57:18;;;;;;;;;;;;;;;28.70;15.49;92443.22;2038474;70;20082;-81
2023/04/26 11:00:04;;;;;;;;;;;;;;;31.28;15.25;92437.03;2039057;70;20044;-79
2023/04/26 11:02:48;;;;;;;;;;;;;;;31.49;14.38;92440.94;2038977;70;20104;-79
2023/04/26 11:05:33;;;;;;;;;;;;;;;30.94;14.47;92442.06;2038329;70;20056;-80
2023/04/26 11:08:08;;;;;;;;;;;;;;;31.87;13.88;92447.38;2038800;70;20056;-77
2023/04/26 11:10:35;;;;;;;;;;;;;;;34.44;12.46;92457.03;2035050;70;20078;-77
2023/04/26 11:13:04;;;;;;;;;;;;;;;32.97;12.81;92450.47;2038935;70;20082;-79
2023/04/26 11:15:30;;;;;;;;;;;;;;;35.46;12.14;92444.72;2035770;70;20140;-81
2023/04/26 11:17:56;;;;;;;;;;;;;;;37.56;12.02;92442.75;2038832;70;20049;-78
2023/04/26 11:20:21;;;;;;;;;;;;;;;40.12;10.61;92443.22;2038338;70;20060;-80
2023/04/26 11:22:47;;;;;;;;;;;;;;;37.24;10.02;92444.91;2038898;70;20076;-80
2023/04/26 11:25:12;;;;;;;;;;;;;;;37.98;10.25;92435.72;2035576;70;20095;-82
2023/04/26 11:27:38;;;;;;;;;;;;;;;41.19;10.01;92443.06;2038547;70;20485;-80
2023/04/26 11:30:04;;;;;;;;;;;;;;;42.07;8.77;92439.13;2038674;70;20052;-79
2023/04/26 11:32:29;;;;;;;;;;;;;;;39.70;10.16;92430.81;2035207;70;20055;-79
2023/04/26 11:34:58;;;;;;;;;;;;;;;42.21;8.87;92436.84;2038969;70;20154;-79
2023/04/26 11:37:24;;;;;;;;;;;;;;;36.20;9.01;92414.09;2035924;70;20060;-81
2023/04/26 11:39:50;;;;;;;;;;;;;;;38.41;9.73;92422.66;2039277;70;20079;-80
2023/04/26 11:42:15;;;;;;;;;;;;;;;35.63;10.72;92414.09;2039408;70;20091;-79
2023/04/26 11:44:42;;;;;;;;;;;;;;;39.92;8.80;92425.94;2038706;70;20095;-81
2023/04/26 11:47:08;;;;;;;;;;;;;;;33.34;11.14;92411.50;2035731;70;20095;-77
2023/04/26 11:49:37;;;;;;;;;;;;;;;31.73;12.80;92407.66;2039297;70;20115;-80
2023/04/26 11:52:06;;;;;;;;;;;;;;;36.61;11.75;92410.19;2039294;70;20119;-79
2023/04/26 11:54:33;;;;;;;;;;;;;;;35.21;11.05;92401.75;2039175;70;20088;-85
2023/04/26 11:56:58;;;;;;;;;;;;;;;35.25;10.69;92409.69;2039187;70;20481;-79
2023/04/26 11:59:28;;;;;;;;;;;;;;;37.13;9.74;92412.38;2035716;70;20068;-81
2023/04/26 12:01:54;;;;;;;;;;;;;;;39.88;8.39;92415.09;2038842;70;20052;-79
2023/04/26 12:04:26;;;;;;;;;;;;;;;38.99;8.85;92408.75;2038986;70;20434;-80
2023/04/26 12:06:51;;;;;;;;;;;;;;;36.54;9.76;92411.25;2039390;70;20645;-81
2023/04/26 12:09:21;;;;;;;;;;;;;;;36.57;9.84;92404.50;2035962;70;20168;-80
2023/04/26 12:11:48;;;;;;;;;;;;;;;38.35;9.40;92411.91;2036020;70;20512;-76
2023/04/26 12:14:15;;;;;;;;;;;;;;;37.88;8.69;92413.41;2035977;70;20044;-78
2023/04/26 12:16:41;;;;;;;;;;;;;;;37.86;9.16;92404.72;2039211;70;20083;-83
2023/04/26 12:19:07;;;;;;;;;;;;;;;40.50;8.73;92400.56;2035984;70;20506;-79
2023/04/26 12:21:42;;;;;;;;;;;;;;;42.15;8.98;92405.38;2039203;70;20143;-81
2023/04/26 12:24:18;;;;;;;;;;;;;;;35.99;10.14;92390.03;2035742;70;20060;-81
2023/04/26 12:26:43;;;;;;;;;;;;;;;32.95;11.64;92386.41;2039422;70;20090;-79
2023/04/26 12:29:09;;;;;;;;;;;;;;;38.20;9.71;92398.69;2039105;70;20052;-80
2023/04/26 12:31:36;;;;;;;;;;;;;;;37.64;8.88;92386.59;2039288;70;20060;-78
2023/04/26 12:34:01;;;;;;;;;;;;;;;38.63;8.72;92397.31;2039193;70;20075;-78
2023/04/26 12:36:27;;;;;;;;;;;;;;;35.57;9.00;92398.97;2039291;70;20020;-77
2023/04/26 12:38:52;;;;;;;;;;;;;;;37.77;8.46;92395.53;2035943;70;20140;-77
2023/04/26 12:41:18;;;;;;;;;;;;;;;38.73;8.66;92399.03;2038859;70;20060;-77
2023/04/26 12:43:44;;;;;;;;;;;;;;;39.86;7.42;92397.50;2039070;70;20056;-77
2023/04/26 12:46:10;;;;;;;;;;;;;;;38.94;9.03;92393.53;2038936;70;20441;-76
2023/04/26 12:48:36;;;;;;;;;;;;;;;33.88;10.30;92385.78;2039218;70;20067;-76
2023/04/26 12:51:02;;;;;;;;;;;;;;;30.16;12.02;92378.16;2035604;70;20563;-77
2023/04/26 12:53:27;;;;;;;;;;;;;;;34.44;9.94;92378.84;2035820;70;20063;-77